createdAt,value
2023-10-04T00:02:12.161Z,15.12
2023-10-04T00:04:40.668Z,15.06
2023-10-04T00:07:13.400Z,15.02
2023-10-04T00:09:40.169Z,14.91
2023-10-04T00:12:07.066Z,14.79
2023-10-04T00:14:33.788Z,14.79
2023-10-04T00:17:03.218Z,14.70
2023-10-04T00:19:29.965Z,14.70
2023-10-04T00:21:56.611Z,14.68
2023-10-04T00:24:23.437Z,14.66
2023-10-04T00:26:50.951Z,14.72
2023-10-04T00:29:19.276Z,14.66
2023-10-04T00:31:48.440Z,14.64
2023-10-04T00:34:15.199Z,14.65
2023-10-04T00:36:41.832Z,14.58
2023-10-04T00:39:09.143Z,14.54
2023-10-04T00:41:36.721Z,14.48
2023-10-04T00:44:10.851Z,14.41
2023-10-04T00:46:41.675Z,14.38
2023-10-04T00:49:09.604Z,14.44
2023-10-04T00:51:37.301Z,14.43
2023-10-04T00:54:09.399Z,14.43
2023-10-04T00:56:37.543Z,14.45
2023-10-04T00:59:05.403Z,14.41
2023-10-04T01:01:33.086Z,14.51
2023-10-04T01:04:05.952Z,14.48
2023-10-04T01:06:32.865Z,14.44
2023-10-04T01:09:01.082Z,14.47
2023-10-04T01:11:33.259Z,14.50
2023-10-04T01:14:10.820Z,14.45
2023-10-04T01:16:42.412Z,14.47
2023-10-04T01:19:13.463Z,14.51
2023-10-04T01:21:40.969Z,14.37
2023-10-04T01:24:10.215Z,14.34
2023-10-04T01:26:38.164Z,14.20
2023-10-04T01:29:10.555Z,14.31
2023-10-04T01:31:37.249Z,14.27
2023-10-04T01:34:04.473Z,14.28
2023-10-04T01:36:33.651Z,14.29
2023-10-04T01:39:00.486Z,14.18
2023-10-04T01:41:27.588Z,14.19
2023-10-04T01:44:01.847Z,14.11
2023-10-04T01:46:28.643Z,14.08
2023-10-04T01:48:57.830Z,14.02
2023-10-04T01:51:27.912Z,14.01
2023-10-04T01:53:54.659Z,14.02
2023-10-04T01:56:21.401Z,13.94
2023-10-04T01:58:49.698Z,13.76
2023-10-04T02:01:16.925Z,13.66
2023-10-04T02:03:43.788Z,13.51
2023-10-04T02:06:11.061Z,13.50
2023-10-04T02:08:38.148Z,13.46
2023-10-04T02:11:05.788Z,13.51
2023-10-04T02:13:34.006Z,13.54
2023-10-04T02:16:03.485Z,13.55
2023-10-04T02:18:30.212Z,13.56
2023-10-04T02:20:57.054Z,13.50
2023-10-04T02:23:24.396Z,13.52
2023-10-04T02:25:51.338Z,13.57
2023-10-04T02:28:24.262Z,13.56
2023-10-04T02:30:55.275Z,13.45
2023-10-04T02:33:23.452Z,13.48
2023-10-04T02:35:51.864Z,13.41
2023-10-04T02:38:28.074Z,13.34
2023-10-04T02:40:55.721Z,13.19
2023-10-04T02:43:26.575Z,13.29
2023-10-04T02:45:54.711Z,13.24
2023-10-04T02:48:21.878Z,13.28
2023-10-04T02:50:49.265Z,13.31
2023-10-04T02:53:25.827Z,13.31
2023-10-04T02:55:56.169Z,13.25
2023-10-04T02:58:26.460Z,13.27
2023-10-04T03:00:55.101Z,13.18
2023-10-04T03:03:26.398Z,13.14
2023-10-04T03:06:01.081Z,13.10
2023-10-04T03:08:28.730Z,13.06
2023-10-04T03:10:56.679Z,13.15
2023-10-04T03:13:26.501Z,13.14
2023-10-04T03:15:56.860Z,12.99
2023-10-04T03:18:27.030Z,13.03
2023-10-04T03:21:02.393Z,13.11
2023-10-04T03:23:36.980Z,13.11
2023-10-04T03:26:13.465Z,12.97
2023-10-04T03:28:41.314Z,12.94
2023-10-04T03:31:13.174Z,12.86
2023-10-04T03:33:40.379Z,12.84
2023-10-04T03:36:07.553Z,12.86
2023-10-04T03:38:35.683Z,12.87
2023-10-04T03:41:05.372Z,12.82
2023-10-04T03:43:32.340Z,12.80
2023-10-04T03:46:04.870Z,12.85
2023-10-04T03:48:31.664Z,12.86
2023-10-04T03:51:02.761Z,12.85
2023-10-04T03:53:29.499Z,12.87
2023-10-04T03:56:00.296Z,12.87
2023-10-04T03:58:27.943Z,12.86
2023-10-04T04:00:54.617Z,12.91
2023-10-04T04:03:21.419Z,12.94
2023-10-04T04:05:50.049Z,12.88
2023-10-04T04:08:16.770Z,12.81
2023-10-04T04:10:44.215Z,12.82
2023-10-04T04:13:13.102Z,12.82
2023-10-04T04:15:41.075Z,12.89
2023-10-04T04:18:14.802Z,13.01
2023-10-04T04:20:42.661Z,12.96
2023-10-04T04:23:11.801Z,12.89
2023-10-04T04:25:39.404Z,12.98
2023-10-04T04:28:08.703Z,13.05
2023-10-04T04:30:36.867Z,13.10
2023-10-04T04:33:08.711Z,13.01
2023-10-04T04:35:38.809Z,13.05
2023-10-04T04:38:18.349Z,13.15
2023-10-04T04:40:47.947Z,13.18
2023-10-04T04:43:35.324Z,13.32
2023-10-04T04:46:02.206Z,13.26
2023-10-04T04:48:39.781Z,13.31
2023-10-04T04:51:12.979Z,13.29
2023-10-04T04:53:46.938Z,13.30
2023-10-04T04:56:16.525Z,13.33
2023-10-04T04:58:50.583Z,13.31
2023-10-04T05:01:18.305Z,13.29
2023-10-04T05:03:48.194Z,13.31
2023-10-04T05:06:17.833Z,13.24
2023-10-04T05:08:44.602Z,13.20
2023-10-04T05:11:11.449Z,13.22
2023-10-04T05:13:38.142Z,13.24
2023-10-04T05:16:08.408Z,13.23
2023-10-04T05:18:36.245Z,13.25
2023-10-04T05:21:05.846Z,13.26
2023-10-04T05:23:32.718Z,13.16
2023-10-04T05:26:01.081Z,13.09
2023-10-04T05:28:31.183Z,13.04
2023-10-04T05:30:58.612Z,12.97
2023-10-04T05:33:25.501Z,13.01
2023-10-04T05:35:54.634Z,12.91
2023-10-04T05:38:23.721Z,12.87
2023-10-04T05:40:51.281Z,12.82
2023-10-04T05:43:20.079Z,12.83
2023-10-04T05:45:48.897Z,12.71
2023-10-04T05:48:20.108Z,12.84
2023-10-04T05:50:50.469Z,12.79
2023-10-04T05:53:21.511Z,12.78
2023-10-04T05:55:50.222Z,12.94
2023-10-04T05:58:17.944Z,13.02
2023-10-04T06:00:53.529Z,13.11
2023-10-04T06:03:21.529Z,13.16
2023-10-04T06:05:48.667Z,13.23
2023-10-04T06:08:23.331Z,13.43
2023-10-04T06:10:54.379Z,13.61
2023-10-04T06:13:26.630Z,13.75
2023-10-04T06:15:55.387Z,13.81
2023-10-04T06:18:27.585Z,14.07
2023-10-04T06:20:54.561Z,14.38
2023-10-04T06:23:22.639Z,14.70
2023-10-04T06:25:53.422Z,14.67
2023-10-04T06:28:21.240Z,15.09
2023-10-04T06:30:50.027Z,15.67
2023-10-04T06:33:17.562Z,16.25
2023-10-04T06:35:44.902Z,16.57
2023-10-04T06:38:14.198Z,16.98
2023-10-04T06:40:42.195Z,17.40
2023-10-04T06:43:10.365Z,17.86
2023-10-04T06:45:38.753Z,18.00
2023-10-04T06:48:06.804Z,18.21
2023-10-04T06:50:37.248Z,18.81
2023-10-04T06:53:05.151Z,19.66
2023-10-04T06:55:33.934Z,20.90
2023-10-04T06:58:01.971Z,21.62
2023-10-04T07:00:37.818Z,22.17
2023-10-04T07:03:06.042Z,23.71
2023-10-04T07:05:36.858Z,24.69
2023-10-04T07:08:06.341Z,25.50
2023-10-04T07:10:34.135Z,26.30
2023-10-04T07:13:03.505Z,27.38
2023-10-04T07:15:36.514Z,28.29
2023-10-04T07:18:07.871Z,28.54
2023-10-04T07:20:35.876Z,29.42
2023-10-04T07:23:09.232Z,28.58
2023-10-04T07:25:48.181Z,29.01
2023-10-04T07:28:15.035Z,28.69
2023-10-04T07:30:42.151Z,29.34
2023-10-04T07:33:10.065Z,30.50
2023-10-04T07:35:37.181Z,31.27
2023-10-04T07:38:07.310Z,32.02
2023-10-04T07:40:36.182Z,31.61
2023-10-04T07:43:03.962Z,31.73
2023-10-04T07:45:32.491Z,32.10
2023-10-04T07:48:00.607Z,32.60
2023-10-04T07:50:28.190Z,32.00
2023-10-04T07:53:06.190Z,31.45
2023-10-04T07:55:34.791Z,31.43
2023-10-04T07:58:06.015Z,30.48
2023-10-04T08:00:36.829Z,30.66
2023-10-04T08:03:05.194Z,30.32
2023-10-04T08:05:32.649Z,30.92
2023-10-04T08:08:06.126Z,32.17
2023-10-04T08:10:35.345Z,33.24
2023-10-04T08:13:03.691Z,33.77
2023-10-04T08:15:33.367Z,34.70
2023-10-04T08:18:00.790Z,35.14
2023-10-04T08:20:31.204Z,35.47
2023-10-04T08:22:59.100Z,35.97
2023-10-04T08:25:28.676Z,35.95
2023-10-04T08:27:56.399Z,34.97
2023-10-04T08:30:23.526Z,34.48
2023-10-04T08:32:53.988Z,34.56
2023-10-04T08:35:29.370Z,34.16
2023-10-04T08:37:58.810Z,34.08
2023-10-04T08:40:28.706Z,35.13
2023-10-04T08:42:56.786Z,36.37
2023-10-04T08:45:25.727Z,36.49
2023-10-04T08:47:59.760Z,35.82
2023-10-04T08:50:56.027Z,34.95
2023-10-04T08:53:28.832Z,34.43
2023-10-04T08:56:03.374Z,35.84
2023-10-04T08:58:32.386Z,38.02
2023-10-04T09:01:02.492Z,39.26
2023-10-04T09:03:29.869Z,39.19
2023-10-04T09:05:56.911Z,37.94
2023-10-04T09:08:26.262Z,39.32
2023-10-04T09:10:56.437Z,40.08
2023-10-04T09:13:24.005Z,41.12
2023-10-04T09:15:51.369Z,40.81
2023-10-04T09:18:28.620Z,43.14
2023-10-04T09:20:55.661Z,42.22
2023-10-04T09:23:25.491Z,40.57
2023-10-04T09:25:56.702Z,39.68
2023-10-04T09:28:39.337Z,36.64
2023-10-04T09:31:10.750Z,35.44
2023-10-04T09:33:37.874Z,37.10
2023-10-04T09:36:04.774Z,38.99
2023-10-04T09:38:33.024Z,42.29
2023-10-04T09:41:03.867Z,43.85
2023-10-04T09:43:33.651Z,45.31
2023-10-04T09:46:00.817Z,45.97
2023-10-04T09:48:32.643Z,45.83
2023-10-04T09:51:06.106Z,46.29
2023-10-04T09:53:34.110Z,47.79
2023-10-04T09:56:03.042Z,48.05
2023-10-04T09:58:33.881Z,44.78
2023-10-04T10:01:09.617Z,40.66
2023-10-04T10:04:04.156Z,38.62
2023-10-04T10:06:35.018Z,37.58
2023-10-04T10:09:06.285Z,34.86
2023-10-04T10:11:34.206Z,33.27
2023-10-04T10:14:05.435Z,32.56
2023-10-04T10:16:34.991Z,33.33
2023-10-04T10:19:04.320Z,34.27
2023-10-04T10:22:17.233Z,36.33
2023-10-04T10:25:11.593Z,36.89
2023-10-04T10:27:38.301Z,36.07
2023-10-04T10:30:13.708Z,34.06
2023-10-04T10:32:51.585Z,31.95
2023-10-04T10:35:50.266Z,30.05
2023-10-04T10:38:41.970Z,29.60
2023-10-04T10:41:10.216Z,31.52
2023-10-04T10:44:15.078Z,34.91
2023-10-04T10:46:56.187Z,38.04
2023-10-04T10:49:54.003Z,37.13
2023-10-04T10:52:25.039Z,34.94
2023-10-04T10:54:59.353Z,32.22
2023-10-04T10:57:30.091Z,30.30
2023-10-04T11:00:00.953Z,31.76
2023-10-04T11:02:28.892Z,32.73
2023-10-04T11:04:56.300Z,33.79
2023-10-04T11:07:24.680Z,36.85
2023-10-04T11:09:56.426Z,38.00
2023-10-04T11:12:24.266Z,39.91
2023-10-04T11:14:53.804Z,40.15
2023-10-04T11:17:24.027Z,40.35
2023-10-04T11:19:53.405Z,40.53
2023-10-04T11:22:21.116Z,39.93
2023-10-04T11:24:48.803Z,40.10
2023-10-04T11:27:24.055Z,40.84
2023-10-04T11:29:53.434Z,40.63
2023-10-04T11:32:22.467Z,41.28
2023-10-04T11:34:49.487Z,41.38
2023-10-04T11:37:17.075Z,41.28
2023-10-04T11:39:46.209Z,39.87
2023-10-04T11:42:18.866Z,38.17
2023-10-04T11:44:46.933Z,35.79
2023-10-04T11:47:16.528Z,34.47
2023-10-04T11:49:56.366Z,33.02
2023-10-04T11:52:23.062Z,31.79
2023-10-04T11:54:49.933Z,31.76
2023-10-04T11:57:30.682Z,33.11
2023-10-04T11:59:57.769Z,32.33
2023-10-04T12:02:26.830Z,31.60
2023-10-04T12:04:53.847Z,30.21
2023-10-04T12:07:20.776Z,29.39
2023-10-04T12:09:47.526Z,28.47
2023-10-04T12:12:18.364Z,28.20
2023-10-04T12:14:46.278Z,28.88
2023-10-04T12:17:13.169Z,29.59
2023-10-04T12:19:40.276Z,29.34
2023-10-04T12:22:10.621Z,29.10
2023-10-04T12:24:39.829Z,28.64
2023-10-04T12:27:09.938Z,28.33
2023-10-04T12:29:37.862Z,27.65
2023-10-04T12:32:08.008Z,27.22
2023-10-04T12:34:35.619Z,27.18
2023-10-04T12:37:02.650Z,27.15
2023-10-04T12:39:29.665Z,27.63
2023-10-04T12:41:57.052Z,27.87
2023-10-04T12:44:24.536Z,27.83
2023-10-04T12:46:51.755Z,28.00
2023-10-04T12:49:21.444Z,27.25
2023-10-04T12:51:48.568Z,27.75
2023-10-04T12:54:17.286Z,27.55
2023-10-04T12:56:47.436Z,27.35
2023-10-04T12:59:14.338Z,27.65
2023-10-04T13:01:42.024Z,27.60
2023-10-04T13:04:09.503Z,27.81
2023-10-04T13:06:36.708Z,27.53
2023-10-04T13:09:04.517Z,27.59
2023-10-04T13:11:31.470Z,27.37
2023-10-04T13:13:58.820Z,27.26
2023-10-04T13:16:26.057Z,26.85
2023-10-04T13:18:52.943Z,26.76
2023-10-04T13:21:19.717Z,26.76
2023-10-04T13:23:46.654Z,26.38
2023-10-04T13:26:13.461Z,26.10
2023-10-04T13:28:40.311Z,25.78
2023-10-04T13:31:07.524Z,25.75
2023-10-04T13:33:35.533Z,25.79
2023-10-04T13:36:02.705Z,25.56
2023-10-04T13:38:29.718Z,25.59
2023-10-04T13:40:59.216Z,25.46
2023-10-04T13:43:26.222Z,25.32
2023-10-04T13:45:54.439Z,25.18
2023-10-04T13:48:23.840Z,25.30
2023-10-04T13:50:53.004Z,25.31
2023-10-04T13:53:21.918Z,25.32
2023-10-04T13:55:50.377Z,25.22
2023-10-04T13:58:24.243Z,25.19
2023-10-04T14:00:56.590Z,25.03
2023-10-04T14:03:24.672Z,25.16
2023-10-04T14:05:54.879Z,24.96
2023-10-04T14:08:22.354Z,24.97
2023-10-04T14:10:50.330Z,24.84
2023-10-04T14:13:17.130Z,24.91
2023-10-04T14:15:44.065Z,24.98
2023-10-04T14:18:12.598Z,24.87
2023-10-04T14:20:39.375Z,24.78
2023-10-04T14:23:11.050Z,24.89
2023-10-04T14:25:39.358Z,24.85
2023-10-04T14:28:07.650Z,24.72
2023-10-04T14:30:34.448Z,24.38
2023-10-04T14:33:01.306Z,24.41
2023-10-04T14:35:28.709Z,24.39
2023-10-04T14:37:56.814Z,24.34
2023-10-04T14:40:26.454Z,24.37
2023-10-04T14:42:58.236Z,24.30
2023-10-04T14:45:25.959Z,24.10
2023-10-04T14:47:53.177Z,23.96
2023-10-04T14:50:21.474Z,24.01
2023-10-04T14:52:49.322Z,23.96
2023-10-04T14:55:18.287Z,23.71
2023-10-04T14:57:46.990Z,23.78
2023-10-04T15:00:25.998Z,23.65
2023-10-04T15:02:55.353Z,23.56
2023-10-04T15:05:22.269Z,23.52
2023-10-04T15:07:49.413Z,23.39
2023-10-04T15:10:20.010Z,23.17
2023-10-04T15:12:48.973Z,23.05
2023-10-04T15:15:17.030Z,22.98
2023-10-04T15:17:47.010Z,22.90
2023-10-04T15:20:20.549Z,22.84
2023-10-04T15:22:49.611Z,22.81
2023-10-04T15:25:17.609Z,22.75
2023-10-04T15:27:57.965Z,22.78
2023-10-04T15:30:25.796Z,22.83
2023-10-04T15:32:54.383Z,22.80
2023-10-04T15:35:28.805Z,22.89
2023-10-04T15:37:59.903Z,22.91
2023-10-04T15:40:35.843Z,23.02
2023-10-04T15:43:09.170Z,23.06
2023-10-04T15:45:36.386Z,23.12
2023-10-04T15:48:09.370Z,23.17
2023-10-04T15:50:38.619Z,23.15
2023-10-04T15:53:09.267Z,23.02
2023-10-04T15:55:37.825Z,22.95
2023-10-04T15:58:04.889Z,22.77
2023-10-04T16:00:35.344Z,22.69
2023-10-04T16:05:29.871Z,22.61
2023-10-04T16:07:57.279Z,22.53
2023-10-04T16:10:26.986Z,22.44
2023-10-04T16:12:56.352Z,22.34
2023-10-04T16:15:23.758Z,22.21
2023-10-04T16:17:51.305Z,22.07
2023-10-04T16:20:18.804Z,21.98
2023-10-04T16:22:48.755Z,21.92
2023-10-04T16:25:17.254Z,21.87
2023-10-04T16:27:45.558Z,21.81
2023-10-04T16:30:15.879Z,21.66
2023-10-04T16:32:43.604Z,21.52
2023-10-04T16:35:14.968Z,21.39
2023-10-04T16:37:42.899Z,21.38
2023-10-04T16:40:16.041Z,21.32
2023-10-04T16:42:43.686Z,21.23
2023-10-04T16:45:11.871Z,21.20
2023-10-04T16:47:38.717Z,21.16
2023-10-04T16:50:06.329Z,21.09
2023-10-04T16:52:33.260Z,20.94
2023-10-04T16:55:00.144Z,20.94
2023-10-04T16:57:27.137Z,20.87
2023-10-04T16:59:55.476Z,20.72
2023-10-04T17:02:22.888Z,20.60
2023-10-04T17:04:51.301Z,20.50
2023-10-04T17:07:18.153Z,20.25
2023-10-04T17:09:45.316Z,20.19
2023-10-04T17:12:12.226Z,20.02
2023-10-04T17:14:40.395Z,19.93
2023-10-04T17:17:10.522Z,19.83
2023-10-04T17:19:37.757Z,19.65
2023-10-04T17:22:04.678Z,19.45
2023-10-04T17:24:31.500Z,19.35
2023-10-04T17:26:58.823Z,19.27
2023-10-04T17:29:25.725Z,19.12
2023-10-04T17:31:52.869Z,19.06
2023-10-04T17:34:19.912Z,18.99
2023-10-04T17:36:46.837Z,18.96
2023-10-04T17:39:15.240Z,18.93
2023-10-04T17:41:42.260Z,18.82
2023-10-04T17:44:09.193Z,18.85
2023-10-04T17:46:36.390Z,18.83
2023-10-04T17:49:03.493Z,18.79
2023-10-04T17:51:30.652Z,18.71
2023-10-04T17:53:59.915Z,18.63
2023-10-04T17:56:26.771Z,18.48
2023-10-04T17:58:53.495Z,18.34
2023-10-04T18:01:21.916Z,18.24
2023-10-04T18:03:50.012Z,18.24
2023-10-04T18:06:19.628Z,18.22
2023-10-04T18:08:46.496Z,18.28
2023-10-04T18:11:13.531Z,18.22
2023-10-04T18:13:41.931Z,18.17
2023-10-04T18:16:09.111Z,18.13
2023-10-04T18:18:36.301Z,18.02
2023-10-04T18:21:03.123Z,18.05
2023-10-04T18:23:30.658Z,18.01
2023-10-04T18:25:58.936Z,17.87
2023-10-04T18:28:25.692Z,17.81
2023-10-04T18:30:52.602Z,17.69
2023-10-04T18:33:20.247Z,17.67
2023-10-04T18:35:47.044Z,17.46
2023-10-04T18:38:14.037Z,17.46
2023-10-04T18:40:40.832Z,17.48
2023-10-04T18:43:08.825Z,17.48
2023-10-04T18:45:35.699Z,17.26
2023-10-04T18:48:05.287Z,17.05
2023-10-04T18:50:32.896Z,16.96
2023-10-04T18:52:59.613Z,16.89
2023-10-04T18:55:26.479Z,16.79
2023-10-04T18:57:53.392Z,16.77
2023-10-04T19:00:20.235Z,16.82
2023-10-04T19:02:47.334Z,16.81
2023-10-04T19:05:15.273Z,16.87
2023-10-04T19:07:47.494Z,16.75
2023-10-04T19:10:16.190Z,16.61
2023-10-04T19:12:43.397Z,16.49
2023-10-04T19:15:10.953Z,16.46
2023-10-04T19:17:38.165Z,16.44
2023-10-04T19:20:12.818Z,16.40
2023-10-04T19:22:42.869Z,16.32
2023-10-04T19:25:11.664Z,16.28
2023-10-04T19:27:38.625Z,16.30
2023-10-04T19:30:06.090Z,16.26
2023-10-04T19:32:33.791Z,16.37
2023-10-04T19:35:00.603Z,16.35
2023-10-04T19:37:27.342Z,16.32
2023-10-04T19:39:54.058Z,16.34
2023-10-04T19:42:21.087Z,16.40
2023-10-04T19:44:49.961Z,16.49
2023-10-04T19:47:19.665Z,16.46
2023-10-04T19:49:47.037Z,16.41
2023-10-04T19:52:14.712Z,16.35
2023-10-04T19:54:41.537Z,16.26
2023-10-04T19:57:08.313Z,16.14
2023-10-04T19:59:34.959Z,16.02
2023-10-04T20:02:01.820Z,16.04
2023-10-04T20:04:28.964Z,16.00
2023-10-04T20:06:56.188Z,15.97
2023-10-04T20:09:26.660Z,15.90
2023-10-04T20:11:53.768Z,15.91
2023-10-04T20:14:20.722Z,15.86
2023-10-04T20:16:47.777Z,15.74
2023-10-04T20:19:14.814Z,15.66
2023-10-04T20:21:42.100Z,15.65
2023-10-04T20:24:08.943Z,15.71
2023-10-04T20:26:35.706Z,15.70
2023-10-04T20:29:02.425Z,15.67
2023-10-04T20:31:29.773Z,15.57
2023-10-04T20:33:56.787Z,15.58
2023-10-04T20:36:24.797Z,15.62
2023-10-04T20:38:51.539Z,15.52
2023-10-04T20:41:18.236Z,15.46
2023-10-04T20:43:44.966Z,15.55
2023-10-04T20:46:11.804Z,15.61
2023-10-04T20:48:40.071Z,15.41
2023-10-04T20:51:07.860Z,15.44
2023-10-04T20:53:34.646Z,15.36
2023-10-04T20:56:01.404Z,15.44
2023-10-04T20:58:28.194Z,15.46
2023-10-04T21:00:55.053Z,15.45
2023-10-04T21:03:22.464Z,15.28
2023-10-04T21:05:51.098Z,15.33
2023-10-04T21:08:19.714Z,15.40
2023-10-04T21:10:46.389Z,15.28
2023-10-04T21:13:13.908Z,15.25
2023-10-04T21:15:40.797Z,15.27
2023-10-04T21:18:07.655Z,15.20
2023-10-04T21:20:34.460Z,15.10
2023-10-04T21:23:01.219Z,15.05
2023-10-04T21:25:28.231Z,15.19
2023-10-04T21:27:55.282Z,15.14
2023-10-04T21:30:29.397Z,15.09
2023-10-04T21:33:04.143Z,14.98
2023-10-04T21:35:32.073Z,14.95
2023-10-04T21:38:00.625Z,14.93
2023-10-04T21:40:29.317Z,14.99
2023-10-04T21:43:00.276Z,14.95
2023-10-04T21:45:31.331Z,14.95
2023-10-04T21:48:07.026Z,14.96
2023-10-04T21:50:34.322Z,14.93
2023-10-04T21:53:01.896Z,14.98
2023-10-04T21:55:30.501Z,14.90
2023-10-04T21:57:57.596Z,14.94
2023-10-04T22:00:29.916Z,14.88
2023-10-04T22:02:57.833Z,14.88
2023-10-04T22:05:24.970Z,14.75
2023-10-04T22:07:57.110Z,14.74
2023-10-04T22:10:24.848Z,14.73
2023-10-04T22:12:51.920Z,14.71
2023-10-04T22:15:19.657Z,14.77
2023-10-04T22:17:47.472Z,14.69
2023-10-04T22:20:14.372Z,14.77
2023-10-04T22:22:41.725Z,14.79
2023-10-04T22:25:13.625Z,14.82
2023-10-04T22:27:41.711Z,14.76
2023-10-04T22:30:15.946Z,14.70
2023-10-04T22:32:42.815Z,14.64
2023-10-04T22:35:11.561Z,14.58
2023-10-04T22:37:38.334Z,14.57
2023-10-04T22:40:06.319Z,14.62
2023-10-04T22:42:38.583Z,14.57
2023-10-04T22:45:15.770Z,14.60
2023-10-04T22:47:43.783Z,14.61
2023-10-04T22:50:17.379Z,14.70
2023-10-04T22:52:44.538Z,14.69
2023-10-04T22:55:15.681Z,14.73
2023-10-04T22:57:43.188Z,14.62
2023-10-04T23:00:25.850Z,14.68
2023-10-04T23:02:56.381Z,14.74
2023-10-04T23:05:26.235Z,14.74
2023-10-04T23:07:53.647Z,14.70
2023-10-04T23:10:24.111Z,14.73
2023-10-04T23:12:52.291Z,14.66
2023-10-04T23:15:29.149Z,14.63
2023-10-04T23:17:57.664Z,14.69
2023-10-04T23:20:39.410Z,14.58
2023-10-04T23:23:13.393Z,14.50
2023-10-04T23:25:40.515Z,14.50
2023-10-04T23:28:07.692Z,14.48
2023-10-04T23:30:36.933Z,14.47
2023-10-04T23:33:08.994Z,14.46
2023-10-04T23:35:42.390Z,14.43
2023-10-04T23:38:36.766Z,14.36
2023-10-04T23:41:25.612Z,14.34
2023-10-04T23:43:53.730Z,14.46
2023-10-04T23:46:28.324Z,14.42
2023-10-04T23:48:59.881Z,14.36
2023-10-04T23:51:26.694Z,14.37
2023-10-04T23:53:56.215Z,14.28
2023-10-04T23:56:22.995Z,14.24
2023-10-04T23:58:50.161Z,14.22
